sensor_id;sensor_type;location;lat;lon;timestamp;pressure;altitude;pressure_sealevel;temperature
67501;BMP180;54349;52.528;19.760;2023-03-01T00:01:47;101991.40;;;22.80
67501;BMP180;54349;52.528;19.760;2023-03-01T00:04:16;101998.00;;;22.70
67501;BMP180;54349;52.528;19.760;2023-03-01T00:06:45;101996.40;;;22.70
67501;BMP180;54349;52.528;19.760;2023-03-01T00:09:16;101997.00;;;22.70
67501;BMP180;54349;52.528;19.760;2023-03-01T00:11:45;101998.20;;;22.70
67501;BMP180;54349;52.528;19.760;2023-03-01T00:14:15;101996.20;;;22.70
67501;BMP180;54349;52.528;19.760;2023-03-01T00:16:46;101993.40;;;22.70
67501;BMP180;54349;52.528;19.760;2023-03-01T00:19:17;102000.00;;;22.70
67501;BMP180;54349;52.528;19.760;2023-03-01T00:21:46;102002.20;;;22.70
67501;BMP180;54349;52.528;19.760;2023-03-01T00:24:14;101999.20;;;22.70
67501;BMP180;54349;52.528;19.760;2023-03-01T00:26:43;101995.40;;;22.60
67501;BMP180;54349;52.528;19.760;2023-03-01T00:29:12;101991.60;;;22.60
67501;BMP180;54349;52.528;19.760;2023-03-01T00:31:40;101988.60;;;22.60
67501;BMP180;54349;52.528;19.760;2023-03-01T00:34:09;101988.80;;;22.60
67501;BMP180;54349;52.528;19.760;2023-03-01T00:36:38;101974.60;;;22.50
67501;BMP180;54349;52.528;19.760;2023-03-01T00:39:13;101967.00;;;22.50
67501;BMP180;54349;52.528;19.760;2023-03-01T00:41:42;101963.60;;;22.50
67501;BMP180;54349;52.528;19.760;2023-03-01T00:44:10;101959.20;;;22.40
67501;BMP180;54349;52.528;19.760;2023-03-01T00:46:39;101953.80;;;22.40
67501;BMP180;54349;52.528;19.760;2023-03-01T00:49:07;101957.00;;;22.40
67501;BMP180;54349;52.528;19.760;2023-03-01T00:51:35;101965.60;;;22.30
67501;BMP180;54349;52.528;19.760;2023-03-01T00:54:03;101969.60;;;22.30
67501;BMP180;54349;52.528;19.760;2023-03-01T00:56:31;101966.00;;;22.20
67501;BMP180;54349;52.528;19.760;2023-03-01T00:59:01;101961.20;;;22.20
67501;BMP180;54349;52.528;19.760;2023-03-01T01:01:30;101960.40;;;22.20
67501;BMP180;54349;52.528;19.760;2023-03-01T01:04:07;101954.20;;;22.28
67501;BMP180;54349;52.528;19.760;2023-03-01T01:06:40;101953.40;;;22.30
67501;BMP180;54349;52.528;19.760;2023-03-01T01:09:14;101954.20;;;22.30
67501;BMP180;54349;52.528;19.760;2023-03-01T01:11:47;101952.40;;;22.30
67501;BMP180;54349;52.528;19.760;2023-03-01T01:14:18;101947.40;;;22.30
67501;BMP180;54349;52.528;19.760;2023-03-01T01:16:47;101939.40;;;22.30
67501;BMP180;54349;52.528;19.760;2023-03-01T01:19:15;101933.80;;;22.30
67501;BMP180;54349;52.528;19.760;2023-03-01T01:21:44;101929.20;;;22.28
67501;BMP180;54349;52.528;19.760;2023-03-01T01:24:13;101925.80;;;22.22
67501;BMP180;54349;52.528;19.760;2023-03-01T01:26:43;101930.60;;;22.22
67501;BMP180;54349;52.528;19.760;2023-03-01T01:29:12;101925.80;;;22.20
67501;BMP180;54349;52.528;19.760;2023-03-01T01:31:42;101922.00;;;22.28
67501;BMP180;54349;52.528;19.760;2023-03-01T01:34:20;101922.60;;;22.24
67501;BMP180;54349;52.528;19.760;2023-03-01T01:36:53;101920.40;;;22.26
67501;BMP180;54349;52.528;19.760;2023-03-01T01:39:22;101915.00;;;22.20
67501;BMP180;54349;52.528;19.760;2023-03-01T01:41:50;101908.20;;;22.22
67501;BMP180;54349;52.528;19.760;2023-03-01T01:47:05;101904.20;;;22.20
67501;BMP180;54349;52.528;19.760;2023-03-01T01:49:44;101902.00;;;22.10
67501;BMP180;54349;52.528;19.760;2023-03-01T01:52:24;101893.00;;;22.02
67501;BMP180;54349;52.528;19.760;2023-03-01T01:55:31;101888.60;;;22.00
67501;BMP180;54349;52.528;19.760;2023-03-01T01:58:03;101876.60;;;21.90
67501;BMP180;54349;52.528;19.760;2023-03-01T02:00:34;101879.20;;;21.80
67501;BMP180;54349;52.528;19.760;2023-03-01T02:03:17;101878.80;;;21.78
67501;BMP180;54349;52.528;19.760;2023-03-01T02:08:33;101874.00;;;21.60
67501;BMP180;54349;52.528;19.760;2023-03-01T02:11:05;101885.60;;;21.60
67501;BMP180;54349;52.528;19.760;2023-03-01T02:13:35;101886.40;;;21.60
67501;BMP180;54349;52.528;19.760;2023-03-01T02:16:14;101883.40;;;21.50
67501;BMP180;54349;52.528;19.760;2023-03-01T02:18:44;101886.00;;;21.50
67501;BMP180;54349;52.528;19.760;2023-03-01T02:26:54;101874.00;;;21.30
67501;BMP180;54349;52.528;19.760;2023-03-01T02:29:24;101876.60;;;21.30
67501;BMP180;54349;52.528;19.760;2023-03-01T02:31:56;101872.00;;;21.22
67501;BMP180;54349;52.528;19.760;2023-03-01T02:34:27;101879.00;;;21.20
67501;BMP180;54349;52.528;19.760;2023-03-01T02:37:04;101878.40;;;21.20
67501;BMP180;54349;52.528;19.760;2023-03-01T02:39:57;101876.20;;;21.10
67501;BMP180;54349;52.528;19.760;2023-03-01T02:42:43;101872.80;;;21.10
67501;BMP180;54349;52.528;19.760;2023-03-01T02:45:13;101872.20;;;21.00
67501;BMP180;54349;52.528;19.760;2023-03-01T02:47:41;101864.80;;;21.00
67501;BMP180;54349;52.528;19.760;2023-03-01T02:56:08;101859.60;;;20.80
67501;BMP180;54349;52.528;19.760;2023-03-01T02:58:43;101858.80;;;20.80
67501;BMP180;54349;52.528;19.760;2023-03-01T03:01:21;101853.80;;;20.80
67501;BMP180;54349;52.528;19.760;2023-03-01T03:03:49;101859.20;;;20.70
67501;BMP180;54349;52.528;19.760;2023-03-01T03:06:17;101861.20;;;20.70
67501;BMP180;54349;52.528;19.760;2023-03-01T03:08:46;101860.00;;;20.62
67501;BMP180;54349;52.528;19.760;2023-03-01T03:11:14;101858.40;;;20.60
67501;BMP180;54349;52.528;19.760;2023-03-01T03:13:43;101853.60;;;20.60
67501;BMP180;54349;52.528;19.760;2023-03-01T03:16:16;101859.00;;;20.60
67501;BMP180;54349;52.528;19.760;2023-03-01T03:18:45;101859.00;;;20.54
67501;BMP180;54349;52.528;19.760;2023-03-01T03:21:14;101855.60;;;20.50
67501;BMP180;54349;52.528;19.760;2023-03-01T03:23:44;101854.40;;;20.50
67501;BMP180;54349;52.528;19.760;2023-03-01T03:26:12;101854.40;;;20.50
67501;BMP180;54349;52.528;19.760;2023-03-01T03:28:41;101847.80;;;20.44
67501;BMP180;54349;52.528;19.760;2023-03-01T03:31:09;101840.20;;;20.40
67501;BMP180;54349;52.528;19.760;2023-03-01T03:33:38;101832.60;;;20.40
67501;BMP180;54349;52.528;19.760;2023-03-01T03:36:07;101836.60;;;20.30
67501;BMP180;54349;52.528;19.760;2023-03-01T03:38:40;101830.40;;;20.30
67501;BMP180;54349;52.528;19.760;2023-03-01T03:41:09;101819.20;;;20.20
67501;BMP180;54349;52.528;19.760;2023-03-01T03:43:39;101819.40;;;20.20
67501;BMP180;54349;52.528;19.760;2023-03-01T03:46:10;101818.00;;;20.18
67501;BMP180;54349;52.528;19.760;2023-03-01T03:48:42;101811.20;;;20.10
67501;BMP180;54349;52.528;19.760;2023-03-01T03:51:14;101811.60;;;20.10
67501;BMP180;54349;52.528;19.760;2023-03-01T03:53:43;101808.20;;;20.02
67501;BMP180;54349;52.528;19.760;2023-03-01T03:56:12;101804.80;;;20.00
67501;BMP180;54349;52.528;19.760;2023-03-01T03:58:41;101798.20;;;19.98
67501;BMP180;54349;52.528;19.760;2023-03-01T04:01:09;101798.80;;;19.90
67501;BMP180;54349;52.528;19.760;2023-03-01T04:03:37;101795.20;;;19.80
67501;BMP180;54349;52.528;19.760;2023-03-01T04:06:05;101799.40;;;19.70
67501;BMP180;54349;52.528;19.760;2023-03-01T04:08:33;101800.60;;;19.60
67501;BMP180;54349;52.528;19.760;2023-03-01T04:11:04;101803.60;;;19.60
67501;BMP180;54349;52.528;19.760;2023-03-01T04:13:55;101808.00;;;19.50
67501;BMP180;54349;52.528;19.760;2023-03-01T04:16:24;101818.80;;;19.50
67501;BMP180;54349;52.528;19.760;2023-03-01T04:18:52;101819.00;;;19.50
67501;BMP180;54349;52.528;19.760;2023-03-01T04:21:21;101815.80;;;19.50
67501;BMP180;54349;52.528;19.760;2023-03-01T04:23:49;101819.20;;;19.50
67501;BMP180;54349;52.528;19.760;2023-03-01T04:26:20;101827.40;;;19.46
67501;BMP180;54349;52.528;19.760;2023-03-01T04:28:48;101827.80;;;19.50
67501;BMP180;54349;52.528;19.760;2023-03-01T04:31:19;101828.80;;;19.50
67501;BMP180;54349;52.528;19.760;2023-03-01T04:33:54;101824.20;;;19.40
67501;BMP180;54349;52.528;19.760;2023-03-01T04:36:26;101827.60;;;19.40
67501;BMP180;54349;52.528;19.760;2023-03-01T04:38:56;101815.00;;;19.32
67501;BMP180;54349;52.528;19.760;2023-03-01T04:41:25;101801.80;;;19.30
67501;BMP180;54349;52.528;19.760;2023-03-01T04:43:54;101799.80;;;19.30
67501;BMP180;54349;52.528;19.760;2023-03-01T04:46:22;101796.20;;;19.30
67501;BMP180;54349;52.528;19.760;2023-03-01T04:48:50;101787.60;;;19.26
67501;BMP180;54349;52.528;19.760;2023-03-01T04:51:19;101784.00;;;19.30
67501;BMP180;54349;52.528;19.760;2023-03-01T04:53:47;101784.60;;;19.30
67501;BMP180;54349;52.528;19.760;2023-03-01T04:56:16;101784.20;;;19.30
67501;BMP180;54349;52.528;19.760;2023-03-01T04:58:47;101777.20;;;19.30
67501;BMP180;54349;52.528;19.760;2023-03-01T05:01:19;101772.80;;;19.30
67501;BMP180;54349;52.528;19.760;2023-03-01T05:03:50;101775.00;;;19.40
67501;BMP180;54349;52.528;19.760;2023-03-01T05:06:20;101768.60;;;19.40
67501;BMP180;54349;52.528;19.760;2023-03-01T05:08:49;101768.60;;;19.40
67501;BMP180;54349;52.528;19.760;2023-03-01T05:11:17;101769.00;;;19.50
67501;BMP180;54349;52.528;19.760;2023-03-01T05:13:45;101762.60;;;19.50
67501;BMP180;54349;52.528;19.760;2023-03-01T05:16:13;101761.20;;;19.58
67501;BMP180;54349;52.528;19.760;2023-03-01T05:18:41;101764.80;;;19.60
67501;BMP180;54349;52.528;19.760;2023-03-01T05:21:13;101769.60;;;19.64
67501;BMP180;54349;52.528;19.760;2023-03-01T05:23:45;101772.00;;;19.66
67501;BMP180;54349;52.528;19.760;2023-03-01T05:26:17;101776.60;;;19.70
67501;BMP180;54349;52.528;19.760;2023-03-01T05:28:55;101773.40;;;19.80
67501;BMP180;54349;52.528;19.760;2023-03-01T05:31:28;101771.80;;;19.80
67501;BMP180;54349;52.528;19.760;2023-03-01T05:33:56;101776.60;;;19.90
67501;BMP180;54349;52.528;19.760;2023-03-01T05:36:24;101780.80;;;20.10
67501;BMP180;54349;52.528;19.760;2023-03-01T05:38:52;101788.60;;;20.20
67501;BMP180;54349;52.528;19.760;2023-03-01T05:41:22;101788.60;;;20.30
67501;BMP180;54349;52.528;19.760;2023-03-01T05:43:50;101787.60;;;20.50
67501;BMP180;54349;52.528;19.760;2023-03-01T05:46:18;101792.20;;;20.52
67501;BMP180;54349;52.528;19.760;2023-03-01T05:48:46;101790.60;;;20.50
67501;BMP180;54349;52.528;19.760;2023-03-01T05:51:16;101788.60;;;20.44
67501;BMP180;54349;52.528;19.760;2023-03-01T05:53:45;101794.80;;;20.48
67501;BMP180;54349;52.528;19.760;2023-03-01T05:56:13;101799.20;;;20.50
67501;BMP180;54349;52.528;19.760;2023-03-01T05:58:41;101804.20;;;20.50
67501;BMP180;54349;52.528;19.760;2023-03-01T06:01:13;101802.80;;;20.48
67501;BMP180;54349;52.528;19.760;2023-03-01T06:03:41;101800.40;;;20.50
67501;BMP180;54349;52.528;19.760;2023-03-01T06:06:10;101799.80;;;20.50
67501;BMP180;54349;52.528;19.760;2023-03-01T06:08:38;101804.60;;;20.50
67501;BMP180;54349;52.528;19.760;2023-03-01T06:11:06;101802.00;;;20.50
67501;BMP180;54349;52.528;19.760;2023-03-01T06:13:35;101804.20;;;20.50
67501;BMP180;54349;52.528;19.760;2023-03-01T06:16:05;101803.40;;;20.50
67501;BMP180;54349;52.528;19.760;2023-03-01T06:18:35;101803.40;;;20.50
67501;BMP180;54349;52.528;19.760;2023-03-01T06:21:06;101806.80;;;20.50
67501;BMP180;54349;52.528;19.760;2023-03-01T06:23:35;101805.60;;;20.50
67501;BMP180;54349;52.528;19.760;2023-03-01T06:26:07;101809.00;;;20.50
67501;BMP180;54349;52.528;19.760;2023-03-01T06:28:36;101814.80;;;20.50
67501;BMP180;54349;52.528;19.760;2023-03-01T06:31:04;101810.80;;;20.50
67501;BMP180;54349;52.528;19.760;2023-03-01T06:33:36;101812.80;;;20.60
67501;BMP180;54349;52.528;19.760;2023-03-01T06:36:05;101810.60;;;20.60
67501;BMP180;54349;52.528;19.760;2023-03-01T06:38:34;101811.40;;;20.52
67501;BMP180;54349;52.528;19.760;2023-03-01T06:41:02;101815.60;;;20.54
67501;BMP180;54349;52.528;19.760;2023-03-01T06:43:30;101814.80;;;20.50
67501;BMP180;54349;52.528;19.760;2023-03-01T06:45:59;101815.80;;;20.50
67501;BMP180;54349;52.528;19.760;2023-03-01T06:48:27;101811.40;;;20.52
67501;BMP180;54349;52.528;19.760;2023-03-01T06:50:59;101813.40;;;20.60
67501;BMP180;54349;52.528;19.760;2023-03-01T06:53:29;101816.20;;;20.60
67501;BMP180;54349;52.528;19.760;2023-03-01T06:55:58;101810.00;;;20.60
67501;BMP180;54349;52.528;19.760;2023-03-01T06:58:28;101806.20;;;20.60
67501;BMP180;54349;52.528;19.760;2023-03-01T07:00:56;101806.80;;;20.60
67501;BMP180;54349;52.528;19.760;2023-03-01T07:03:24;101808.40;;;20.60
67501;BMP180;54349;52.528;19.760;2023-03-01T07:05:52;101812.60;;;20.58
67501;BMP180;54349;52.528;19.760;2023-03-01T07:08:20;101816.40;;;20.60
67501;BMP180;54349;52.528;19.760;2023-03-01T07:10:55;101814.80;;;20.60
67501;BMP180;54349;52.528;19.760;2023-03-01T07:13:24;101820.60;;;20.60
67501;BMP180;54349;52.528;19.760;2023-03-01T07:15:52;101819.60;;;20.66
67501;BMP180;54349;52.528;19.760;2023-03-01T07:18:21;101820.80;;;20.70
67501;BMP180;54349;52.528;19.760;2023-03-01T07:20:49;101820.20;;;20.70
67501;BMP180;54349;52.528;19.760;2023-03-01T07:23:18;101818.20;;;20.70
67501;BMP180;54349;52.528;19.760;2023-03-01T07:25:55;101808.80;;;20.70
67501;BMP180;54349;52.528;19.760;2023-03-01T07:28:23;101809.60;;;20.66
67501;BMP180;54349;52.528;19.760;2023-03-01T07:30:52;101809.80;;;20.70
67501;BMP180;54349;52.528;19.760;2023-03-01T07:33:20;101809.40;;;20.70
67501;BMP180;54349;52.528;19.760;2023-03-01T07:35:59;101803.00;;;20.70
67501;BMP180;54349;52.528;19.760;2023-03-01T07:38:28;101801.80;;;20.70
67501;BMP180;54349;52.528;19.760;2023-03-01T07:41:02;101798.60;;;20.72
67501;BMP180;54349;52.528;19.760;2023-03-01T07:43:30;101792.20;;;20.70
67501;BMP180;54349;52.528;19.760;2023-03-01T07:46:03;101789.20;;;20.70
67501;BMP180;54349;52.528;19.760;2023-03-01T07:48:32;101794.80;;;20.70
67501;BMP180;54349;52.528;19.760;2023-03-01T07:51:05;101789.80;;;20.70
67501;BMP180;54349;52.528;19.760;2023-03-01T07:53:34;101789.20;;;20.70
67501;BMP180;54349;52.528;19.760;2023-03-01T07:56:13;101793.40;;;20.64
67501;BMP180;54349;52.528;19.760;2023-03-01T07:58:43;101794.80;;;20.70
67501;BMP180;54349;52.528;19.760;2023-03-01T08:01:18;101797.20;;;20.72
67501;BMP180;54349;52.528;19.760;2023-03-01T08:03:47;101797.20;;;20.70
67501;BMP180;54349;52.528;19.760;2023-03-01T08:06:17;101795.80;;;20.70
67501;BMP180;54349;52.528;19.760;2023-03-01T08:08:46;101789.80;;;20.70
67501;BMP180;54349;52.528;19.760;2023-03-01T08:11:15;101787.60;;;20.70
67501;BMP180;54349;52.528;19.760;2023-03-01T08:13:43;101784.80;;;20.70
67501;BMP180;54349;52.528;19.760;2023-03-01T08:16:14;101782.80;;;20.70
67501;BMP180;54349;52.528;19.760;2023-03-01T08:18:43;101782.40;;;20.80
67501;BMP180;54349;52.528;19.760;2023-03-01T08:21:15;101780.80;;;20.90
67501;BMP180;54349;52.528;19.760;2023-03-01T08:23:44;101778.60;;;20.90
67501;BMP180;54349;52.528;19.760;2023-03-01T08:26:17;101773.80;;;20.90
67501;BMP180;54349;52.528;19.760;2023-03-01T08:28:47;101770.40;;;20.80
67501;BMP180;54349;52.528;19.760;2023-03-01T08:31:29;101775.80;;;20.80
67501;BMP180;54349;52.528;19.760;2023-03-01T08:34:00;101778.40;;;20.80
67501;BMP180;54349;52.528;19.760;2023-03-01T08:36:41;101772.00;;;20.80
67501;BMP180;54349;52.528;19.760;2023-03-01T08:39:12;101772.00;;;20.80
67501;BMP180;54349;52.528;19.760;2023-03-01T08:41:41;101768.40;;;20.80
67501;BMP180;54349;52.528;19.760;2023-03-01T08:44:13;101768.60;;;20.72
67501;BMP180;54349;52.528;19.760;2023-03-01T08:46:43;101775.80;;;20.80
67501;BMP180;54349;52.528;19.760;2023-03-01T08:49:16;101777.40;;;20.80
67501;BMP180;54349;52.528;19.760;2023-03-01T08:51:46;101776.40;;;20.80
67501;BMP180;54349;52.528;19.760;2023-03-01T08:54:19;101782.00;;;20.80
67501;BMP180;54349;52.528;19.760;2023-03-01T08:56:48;101781.80;;;20.80
67501;BMP180;54349;52.528;19.760;2023-03-01T08:59:17;101782.40;;;20.90
67501;BMP180;54349;52.528;19.760;2023-03-01T09:01:46;101779.20;;;20.98
67501;BMP180;54349;52.528;19.760;2023-03-01T09:04:15;101785.60;;;21.00
67501;BMP180;54349;52.528;19.760;2023-03-01T09:06:44;101784.80;;;21.10
67501;BMP180;54349;52.528;19.760;2023-03-01T09:09:17;101791.80;;;21.10
67501;BMP180;54349;52.528;19.760;2023-03-01T09:11:46;101785.00;;;21.18
67501;BMP180;54349;52.528;19.760;2023-03-01T09:14:14;101786.80;;;21.20
67501;BMP180;54349;52.528;19.760;2023-03-01T09:16:43;101789.40;;;21.20
67501;BMP180;54349;52.528;19.760;2023-03-01T09:19:11;101790.60;;;21.26
67501;BMP180;54349;52.528;19.760;2023-03-01T09:21:40;101793.60;;;21.30
67501;BMP180;54349;52.528;19.760;2023-03-01T09:24:14;101788.60;;;21.30
67501;BMP180;54349;52.528;19.760;2023-03-01T09:26:43;101784.60;;;21.40
67501;BMP180;54349;52.528;19.760;2023-03-01T09:29:16;101785.80;;;21.40
67501;BMP180;54349;52.528;19.760;2023-03-01T09:31:45;101789.20;;;21.40
67501;BMP180;54349;52.528;19.760;2023-03-01T09:34:13;101782.00;;;21.40
67501;BMP180;54349;52.528;19.760;2023-03-01T09:36:43;101785.20;;;21.40
67501;BMP180;54349;52.528;19.760;2023-03-01T09:39:11;101782.40;;;21.40
67501;BMP180;54349;52.528;19.760;2023-03-01T09:42:01;101773.00;;;21.40
67501;BMP180;54349;52.528;19.760;2023-03-01T09:44:56;101769.60;;;21.40
67501;BMP180;54349;52.528;19.760;2023-03-01T09:47:35;101770.00;;;21.38
67501;BMP180;54349;52.528;19.760;2023-03-01T09:50:19;101765.60;;;21.40
67501;BMP180;54349;52.528;19.760;2023-03-01T09:53:37;101767.80;;;21.40
67501;BMP180;54349;52.528;19.760;2023-03-01T09:56:20;101765.60;;;21.40
67501;BMP180;54349;52.528;19.760;2023-03-01T10:01:38;101764.40;;;21.50
67501;BMP180;54349;52.528;19.760;2023-03-01T10:04:46;101767.60;;;21.52
67501;BMP180;54349;52.528;19.760;2023-03-01T10:07:43;101767.40;;;21.60
67501;BMP180;54349;52.528;19.760;2023-03-01T10:10:31;101760.40;;;21.60
67501;BMP180;54349;52.528;19.760;2023-03-01T10:16:21;101753.20;;;21.60
67501;BMP180;54349;52.528;19.760;2023-03-01T10:18:59;101754.80;;;21.60
67501;BMP180;54349;52.528;19.760;2023-03-01T10:21:29;101746.60;;;21.70
67501;BMP180;54349;52.528;19.760;2023-03-01T10:24:13;101745.60;;;21.70
67501;BMP180;54349;52.528;19.760;2023-03-01T10:26:55;101746.40;;;21.70
67501;BMP180;54349;52.528;19.760;2023-03-01T10:32:35;101740.40;;;21.80
67501;BMP180;54349;52.528;19.760;2023-03-01T10:35:35;101738.40;;;21.90
67501;BMP180;54349;52.528;19.760;2023-03-01T10:38:11;101731.20;;;22.00
67501;BMP180;54349;52.528;19.760;2023-03-01T10:43:22;101721.40;;;22.00
67501;BMP180;54349;52.528;19.760;2023-03-01T10:45:51;101715.60;;;22.08
67501;BMP180;54349;52.528;19.760;2023-03-01T10:48:26;101711.40;;;22.10
67501;BMP180;54349;52.528;19.760;2023-03-01T10:56:08;101702.20;;;22.20
67501;BMP180;54349;52.528;19.760;2023-03-01T10:58:56;101697.00;;;22.14
67501;BMP180;54349;52.528;19.760;2023-03-01T11:01:29;101690.80;;;22.10
67501;BMP180;54349;52.528;19.760;2023-03-01T11:06:38;101693.20;;;22.10
67501;BMP180;54349;52.528;19.760;2023-03-01T11:09:20;101700.80;;;22.10
67501;BMP180;54349;52.528;19.760;2023-03-01T11:11:57;101700.20;;;22.12
67501;BMP180;54349;52.528;19.760;2023-03-01T11:14:36;101698.80;;;22.20
67501;BMP180;54349;52.528;19.760;2023-03-01T11:17:30;101700.40;;;22.20
67501;BMP180;54349;52.528;19.760;2023-03-01T11:23:01;101690.40;;;22.30
67501;BMP180;54349;52.528;19.760;2023-03-01T11:25:39;101689.40;;;22.30
67501;BMP180;54349;52.528;19.760;2023-03-01T11:28:17;101686.80;;;22.30
67501;BMP180;54349;52.528;19.760;2023-03-01T11:30:57;101678.00;;;22.30
67501;BMP180;54349;52.528;19.760;2023-03-01T11:33:58;101674.40;;;22.40
67501;BMP180;54349;52.528;19.760;2023-03-01T11:39:32;101663.40;;;22.50
67501;BMP180;54349;52.528;19.760;2023-03-01T11:42:20;101658.40;;;22.50
67501;BMP180;54349;52.528;19.760;2023-03-01T11:44:54;101652.60;;;22.50
67501;BMP180;54349;52.528;19.760;2023-03-01T11:50:48;101646.80;;;22.50
67501;BMP180;54349;52.528;19.760;2023-03-01T12:17:51;101664.20;;;22.60
67501;BMP180;54349;52.528;19.760;2023-03-01T12:20:36;101663.00;;;22.60
67501;BMP180;54349;52.528;19.760;2023-03-01T12:24:10;101663.20;;;22.60
67501;BMP180;54349;52.528;19.760;2023-03-01T12:33:37;101659.40;;;22.78
67501;BMP180;54349;52.528;19.760;2023-03-01T12:51:37;101641.40;;;22.84
67501;BMP180;54349;52.528;19.760;2023-03-01T12:54:21;101636.40;;;22.90
67501;BMP180;54349;52.528;19.760;2023-03-01T12:56:51;101632.60;;;22.90
67501;BMP180;54349;52.528;19.760;2023-03-01T13:09:01;101618.80;;;22.80
67501;BMP180;54349;52.528;19.760;2023-03-01T13:11:32;101625.40;;;22.80
67501;BMP180;54349;52.528;19.760;2023-03-01T13:17:00;101620.40;;;22.80
67501;BMP180;54349;52.528;19.760;2023-03-01T13:19:29;101620.40;;;22.80
67501;BMP180;54349;52.528;19.760;2023-03-01T13:21:59;101620.60;;;22.80
67501;BMP180;54349;52.528;19.760;2023-03-01T13:24:40;101620.20;;;22.80
67501;BMP180;54349;52.528;19.760;2023-03-01T13:27:26;101617.60;;;22.82
67501;BMP180;54349;52.528;19.760;2023-03-01T13:29:59;101618.00;;;22.90
67501;BMP180;54349;52.528;19.760;2023-03-01T13:32:34;101614.20;;;22.90
67501;BMP180;54349;52.528;19.760;2023-03-01T13:37:44;101612.20;;;22.90
67501;BMP180;54349;52.528;19.760;2023-03-01T13:42:50;101607.40;;;22.98
67501;BMP180;54349;52.528;19.760;2023-03-01T13:45:40;101610.60;;;23.00
67501;BMP180;54349;52.528;19.760;2023-03-01T13:48:25;101603.00;;;23.00
67501;BMP180;54349;52.528;19.760;2023-03-01T13:51:04;101598.60;;;23.00
67501;BMP180;54349;52.528;19.760;2023-03-01T13:53:39;101599.00;;;23.00
67501;BMP180;54349;52.528;19.760;2023-03-01T13:56:24;101602.80;;;23.08
67501;BMP180;54349;52.528;19.760;2023-03-01T13:59:06;101599.80;;;23.10
67501;BMP180;54349;52.528;19.760;2023-03-01T14:01:40;101595.00;;;23.10
67501;BMP180;54349;52.528;19.760;2023-03-01T14:04:30;101599.00;;;23.10
67501;BMP180;54349;52.528;19.760;2023-03-01T14:07:22;101601.80;;;23.10
67501;BMP180;54349;52.528;19.760;2023-03-01T14:10:00;101601.60;;;23.12
67501;BMP180;54349;52.528;19.760;2023-03-01T14:18:56;101578.60;;;23.20
67501;BMP180;54349;52.528;19.760;2023-03-01T14:21:29;101576.60;;;23.26
67501;BMP180;54349;52.528;19.760;2023-03-01T14:23:58;101574.80;;;23.30
67501;BMP180;54349;52.528;19.760;2023-03-01T14:26:27;101578.20;;;23.30
67501;BMP180;54349;52.528;19.760;2023-03-01T14:28:56;101572.60;;;23.38
67501;BMP180;54349;52.528;19.760;2023-03-01T14:31:38;101573.20;;;23.40
67501;BMP180;54349;52.528;19.760;2023-03-01T14:34:23;101570.00;;;23.40
67501;BMP180;54349;52.528;19.760;2023-03-01T14:36:52;101566.80;;;23.40
67501;BMP180;54349;52.528;19.760;2023-03-01T14:39:25;101562.20;;;23.30
67501;BMP180;54349;52.528;19.760;2023-03-01T14:41:58;101561.20;;;23.30
67501;BMP180;54349;52.528;19.760;2023-03-01T14:44:47;101562.00;;;23.18
67501;BMP180;54349;52.528;19.760;2023-03-01T14:47:36;101559.80;;;23.10
67501;BMP180;54349;52.528;19.760;2023-03-01T14:52:54;101559.40;;;22.92
67501;BMP180;54349;52.528;19.760;2023-03-01T14:55:30;101562.20;;;22.90
67501;BMP180;54349;52.528;19.760;2023-03-01T14:57:59;101563.20;;;22.80
67501;BMP180;54349;52.528;19.760;2023-03-01T15:00:33;101568.20;;;22.72
67501;BMP180;54349;52.528;19.760;2023-03-01T15:03:17;101560.40;;;22.70
67501;BMP180;54349;52.528;19.760;2023-03-01T15:05:48;101559.60;;;22.60
67501;BMP180;54349;52.528;19.760;2023-03-01T15:08:24;101560.20;;;22.60
67501;BMP180;54349;52.528;19.760;2023-03-01T15:11:29;101558.20;;;22.50
67501;BMP180;54349;52.528;19.760;2023-03-01T15:13:59;101561.20;;;22.42
67501;BMP180;54349;52.528;19.760;2023-03-01T15:16:33;101562.20;;;22.42
67501;BMP180;54349;52.528;19.760;2023-03-01T15:19:07;101565.60;;;22.50
67501;BMP180;54349;52.528;19.760;2023-03-01T15:21:38;101564.80;;;22.50
67501;BMP180;54349;52.528;19.760;2023-03-01T15:27:00;101566.60;;;22.60
67501;BMP180;54349;52.528;19.760;2023-03-01T15:29:35;101564.40;;;22.60
67501;BMP180;54349;52.528;19.760;2023-03-01T15:32:31;101560.20;;;22.60
67501;BMP180;54349;52.528;19.760;2023-03-01T15:38:36;101559.00;;;22.70
67501;BMP180;54349;52.528;19.760;2023-03-01T15:41:28;101556.00;;;22.70
67501;BMP180;54349;52.528;19.760;2023-03-01T15:44:25;101554.80;;;22.72
67501;BMP180;54349;52.528;19.760;2023-03-01T15:47:22;101554.40;;;22.78
67501;BMP180;54349;52.528;19.760;2023-03-01T15:49:54;101545.40;;;22.80
67501;BMP180;54349;52.528;19.760;2023-03-01T15:52:32;101544.60;;;22.80
67501;BMP180;54349;52.528;19.760;2023-03-01T15:55:20;101543.00;;;22.80
67501;BMP180;54349;52.528;19.760;2023-03-01T15:57:58;101535.00;;;22.80
67501;BMP180;54349;52.528;19.760;2023-03-01T16:00:28;101534.20;;;22.80
67501;BMP180;54349;52.528;19.760;2023-03-01T16:02:56;101533.00;;;22.80
67501;BMP180;54349;52.528;19.760;2023-03-01T16:05:29;101530.20;;;22.80
67501;BMP180;54349;52.528;19.760;2023-03-01T16:07:58;101533.80;;;22.80
67501;BMP180;54349;52.528;19.760;2023-03-01T16:10:27;101535.20;;;22.80
67501;BMP180;54349;52.528;19.760;2023-03-01T16:12:56;101532.60;;;22.80
67501;BMP180;54349;52.528;19.760;2023-03-01T16:15:31;101531.40;;;22.80
67501;BMP180;54349;52.528;19.760;2023-03-01T16:18:00;101527.40;;;22.80
67501;BMP180;54349;52.528;19.760;2023-03-01T16:20:29;101523.40;;;22.80
67501;BMP180;54349;52.528;19.760;2023-03-01T16:23:05;101522.40;;;22.70
67501;BMP180;54349;52.528;19.760;2023-03-01T16:25:35;101521.40;;;22.60